Time;durP1;ratioP1;P1;durP2;ratioP2;P2;SDS_P1;SDS_P2;PMS_P1;PMS_P2;Temp;Humidity;BMP_temperature;BMP_pressure;BME280_temperature;BME280_humidity;BME280_pressure;Samples;Min_cycle;Max_cycle;Signal;HPM_P1;HPM_P2
2021/04/07 00:02:07;;;;;;;3.07;2.97;;;7.20;75.10;;;;;;4887960;29;20268;-69
2021/04/07 00:04:34;;;;;;;2.40;2.13;;;7.00;75.20;;;;;;4889368;29;20237;-69
2021/04/07 00:07:00;;;;;;;2.13;2.03;;;7.00;75.20;;;;;;4889866;29;20574;-69
2021/04/07 00:09:26;;;;;;;2.40;2.30;;;7.00;75.40;;;;;;4888349;29;20196;-68
2021/04/07 00:11:52;;;;;;;2.80;2.60;;;6.90;75.40;;;;;;4888212;29;20399;-69
2021/04/07 00:14:19;;;;;;;8.70;2.70;;;6.90;75.50;;;;;;4888424;29;20184;-70
2021/04/07 00:16:45;;;;;;;5.50;3.30;;;6.90;75.60;;;;;;4890760;29;20181;-70
2021/04/07 00:19:10;;;;;;;2.33;2.20;;;6.90;75.50;;;;;;4889402;29;20217;-69
2021/04/07 00:21:36;;;;;;;3.67;2.40;;;6.90;75.50;;;;;;4889412;29;20193;-69
2021/04/07 00:24:02;;;;;;;3.70;2.13;;;6.90;75.70;;;;;;4888861;29;20185;-69
2021/04/07 00:26:28;;;;;;;2.73;2.57;;;6.90;75.90;;;;;;4887562;29;20663;-69
2021/04/07 00:28:53;;;;;;;3.40;2.13;;;6.80;75.80;;;;;;4891235;29;20187;-69
2021/04/07 00:31:19;;;;;;;7.07;2.70;;;6.80;75.80;;;;;;4890581;29;20195;-70
2021/04/07 00:33:45;;;;;;;4.27;2.97;;;6.70;76.10;;;;;;4889311;29;20278;-69
2021/04/07 00:36:10;;;;;;;2.67;2.40;;;6.60;76.10;;;;;;4886811;29;20272;-69
2021/04/07 00:38:36;;;;;;;3.67;2.67;;;6.60;76.40;;;;;;4887685;29;20185;-68
2021/04/07 00:41:02;;;;;;;2.33;2.23;;;6.60;76.50;;;;;;4889194;29;20228;-68
2021/04/07 00:43:27;;;;;;;2.87;2.20;;;6.60;76.50;;;;;;4889121;29;20185;-69
2021/04/07 00:45:53;;;;;;;1.80;1.70;;;6.50;77.20;;;;;;4887470;29;20563;-69
2021/04/07 00:48:20;;;;;;;3.03;2.83;;;6.60;77.10;;;;;;4887588;29;20197;-69
2021/04/07 00:50:45;;;;;;;2.27;2.13;;;6.50;77.10;;;;;;4887536;29;20185;-69
2021/04/07 00:53:11;;;;;;;3.63;2.90;;;6.50;77.10;;;;;;4884414;29;20208;-69
2021/04/07 00:55:44;;;;;;;3.30;3.10;;;6.50;77.30;;;;;;4889050;29;20247;-69
2021/04/07 00:58:09;;;;;;;3.10;2.90;;;6.50;77.20;;;;;;4886997;29;20233;-69
2021/04/07 01:00:35;;;;;;;3.10;2.83;;;6.40;77.30;;;;;;4887565;29;20224;-69
2021/04/07 01:03:02;;;;;;;3.07;2.77;;;6.40;77.50;;;;;;4888865;29;20198;-67
2021/04/07 01:05:28;;;;;;;7.03;2.67;;;6.40;77.10;;;;;;4888306;29;20181;-69
2021/04/07 01:07:55;;;;;;;3.03;2.70;;;6.40;77.00;;;;;;4886333;29;20177;-69
2021/04/07 01:10:22;;;;;;;3.03;2.77;;;6.30;77.40;;;;;;4889928;29;20189;-70
2021/04/07 01:12:48;;;;;;;4.23;2.90;;;6.20;76.80;;;;;;4886884;29;20678;-69
2021/04/07 01:15:15;;;;;;;10.60;2.13;;;6.10;77.10;;;;;;4889309;29;20597;-69
2021/04/07 01:17:42;;;;;;;2.27;2.07;;;6.10;77.50;;;;;;4887739;29;20208;-69
2021/04/07 01:20:11;;;;;;;4.13;3.60;;;6.10;77.50;;;;;;4888304;29;20219;-69
2021/04/07 01:22:37;;;;;;;4.17;2.63;;;6.00;77.60;;;;;;4886446;29;20181;-69
2021/04/07 01:25:05;;;;;;;5.47;2.53;;;6.10;77.50;;;;;;4889273;29;20195;-69
2021/04/07 01:27:33;;;;;;;3.10;2.80;;;6.10;77.80;;;;;;4886144;29;20181;-69
2021/04/07 01:29:58;;;;;;;2.20;2.10;;;6.10;77.60;;;;;;4888430;29;20189;-69
2021/04/07 01:32:24;;;;;;;3.57;3.27;;;6.10;77.80;;;;;;4886436;29;20917;-68
2021/04/07 01:34:50;;;;;;;9.50;3.20;;;6.10;77.80;;;;;;4887499;29;20314;-69
2021/04/07 01:37:16;;;;;;;10.70;3.17;;;6.10;78.00;;;;;;4886963;29;20181;-70
2021/04/07 01:39:42;;;;;;;4.30;2.73;;;6.00;78.10;;;;;;4889353;29;20221;-69
2021/04/07 01:42:09;;;;;;;2.63;2.43;;;6.00;78.20;;;;;;4888511;29;20272;-68
2021/04/07 01:44:39;;;;;;;3.83;2.87;;;5.90;78.70;;;;;;4886427;29;20589;-68
2021/04/07 01:49:32;;;;;;;4.30;2.57;;;5.80;79.10;;;;;;5109460;27;20534;-68
2021/04/07 01:51:59;;;;;;;2.67;2.30;;;5.80;79.10;;;;;;5112877;28;20209;-68
2021/04/07 01:54:25;;;;;;;1.83;1.73;;;5.70;79.70;;;;;;5108958;28;20190;-68
2021/04/07 01:56:55;;;;;;;2.30;2.10;;;5.60;80.20;;;;;;5109292;28;20184;-68
2021/04/07 01:59:29;;;;;;;4.47;2.73;;;5.30;80.90;;;;;;5107719;28;20180;-68
2021/04/07 02:01:56;;;;;;;2.70;2.50;;;5.20;81.30;;;;;;5113682;28;20306;-68
2021/04/07 02:04:22;;;;;;;3.57;2.67;;;5.10;81.80;;;;;;5107640;28;20654;-68
2021/04/07 02:06:48;;;;;;;2.30;2.13;;;5.00;82.30;;;;;;5114935;28;20233;-68
2021/04/07 02:09:16;;;;;;;5.33;2.73;;;4.80;83.10;;;;;;5109627;28;20353;-68
2021/04/07 02:11:53;;;;;;;2.83;2.63;;;4.70;83.60;;;;;;5116230;28;20177;-68
2021/04/07 02:14:25;;;;;;;1.70;1.60;;;4.70;83.90;;;;;;5112150;28;20174;-67
2021/04/07 02:16:59;;;;;;;2.50;2.30;;;4.60;84.30;;;;;;5113718;28;20693;-67
2021/04/07 02:19:29;;;;;;;1.87;1.77;;;4.30;84.80;;;;;;5112764;28;20197;-67
2021/04/07 02:22:09;;;;;;;2.63;2.43;;;4.10;85.70;;;;;;5113566;28;20174;-68
2021/04/07 02:24:42;;;;;;;2.27;2.17;;;4.00;86.40;;;;;;5115978;28;20352;-68
2021/04/07 02:27:19;;;;;;;2.03;1.90;;;3.80;87.30;;;;;;5111469;28;20192;-68
2021/04/07 02:29:50;;;;;;;1.53;1.53;;;3.70;87.80;;;;;;5109037;28;20185;-68
2021/04/07 02:32:16;;;;;;;1.83;1.80;;;3.60;88.00;;;;;;5109489;28;20177;-68
2021/04/07 02:34:43;;;;;;;1.57;1.10;;;3.50;88.20;;;;;;5108919;28;20178;-68
2021/04/07 02:37:12;;;;;;;1.60;1.50;;;3.40;87.90;;;;;;5109443;28;20188;-68
2021/04/07 02:39:38;;;;;;;1.60;1.50;;;3.30;88.20;;;;;;5107773;28;20300;-68
2021/04/07 02:42:04;;;;;;;0.87;0.87;;;3.30;88.10;;;;;;5109336;28;20295;-68
2021/04/07 02:44:30;;;;;;;1.00;1.00;;;3.20;87.60;;;;;;5110133;28;20182;-68
2021/04/07 02:46:56;;;;;;;0.93;0.93;;;;;;;;;;5107352;28;20286;-68
2021/04/07 02:49:22;;;;;;;0.70;0.70;;;;;;;;;;5111628;28;20212;-68
2021/04/07 02:51:50;;;;;;;0.57;0.57;;;3.00;87.90;;;;;;5110390;28;20602;-68
2021/04/07 02:54:16;;;;;;;0.60;0.60;;;3.00;87.70;;;;;;5113387;28;20182;-68
2021/04/07 02:56:42;;;;;;;0.57;0.57;;;2.90;88.00;;;;;;5112425;28;20704;-68
2021/04/07 02:59:07;;;;;;;0.47;0.40;;;2.80;87.90;;;;;;5107543;28;20260;-68
2021/04/07 03:01:34;;;;;;;1.53;0.27;;;2.80;87.80;;;;;;5094858;28;20651;-68
2021/04/07 03:03:59;;;;;;;0.27;0.27;;;2.70;87.70;;;;;;5099106;28;20185;-68
2021/04/07 03:06:25;;;;;;;0.27;0.27;;;2.60;87.70;;;;;;5101376;28;20196;-67
2021/04/07 03:08:51;;;;;;;0.30;0.30;;;;;;;;;;5097485;28;20320;-67
2021/04/07 03:11:17;;;;;;;0.50;0.50;;;;;;;;;;5096441;28;20308;-67
2021/04/07 03:13:43;;;;;;;3.13;1.20;;;;;;;;;;5098958;28;20185;-67
2021/04/07 03:16:10;;;;;;;1.10;0.60;;;2.20;87.60;;;;;;5100370;28;20177;-67
2021/04/07 03:18:36;;;;;;;0.20;0.20;;;2.00;88.20;;;;;;5103339;28;20244;-68
2021/04/07 03:21:02;;;;;;;0.30;0.30;;;;;;;;;;5096537;28;20181;-67
2021/04/07 03:23:28;;;;;;;0.20;0.20;;;;;;;;;;5094642;28;20311;-69
2021/04/07 03:25:54;;;;;;;0.20;0.20;;;;;;;;;;5099863;28;20227;-69
2021/04/07 03:28:20;;;;;;;0.10;0.10;;;;;;;;;;5096011;28;20336;-68
2021/04/07 03:30:52;;;;;;;0.30;0.30;;;;;;;;;;5095808;28;20213;-68
2021/04/07 03:33:22;;;;;;;0.20;0.20;;;1.70;89.00;;;;;;5098487;28;20189;-68
2021/04/07 03:35:50;;;;;;;0.10;0.10;;;1.60;89.00;;;;;;5097470;28;20180;-68
2021/04/07 03:38:16;;;;;;;0.10;0.10;;;1.60;88.90;;;;;;5098248;28;20740;-67
2021/04/07 03:40:42;;;;;;;0.10;0.10;;;1.60;89.00;;;;;;5095158;28;20181;-68
2021/04/07 03:43:09;;;;;;;0.30;0.30;;;1.60;88.90;;;;;;5090893;28;20178;-67
2021/04/07 03:45:35;;;;;;;0.30;0.10;;;;;;;;;;5091639;28;20182;-69
2021/04/07 03:48:01;;;;;;;0.20;0.20;;;;;;;;;;5091760;28;20301;-68
2021/04/07 03:50:28;;;;;;;0.07;0.07;;;;;;;;;;5101989;28;20260;-69
2021/04/07 03:52:54;;;;;;;0.10;0.10;;;;;;;;;;5098506;28;20178;-69
2021/04/07 03:55:20;;;;;;;0.20;0.20;;;;;;;;;;5098382;28;20219;-68
2021/04/07 03:57:46;;;;;;;0.10;0.10;;;1.50;88.70;;;;;;5099148;28;20181;-69
2021/04/07 04:00:12;;;;;;;0.37;0.37;;;1.50;88.90;;;;;;5093214;28;20189;-69
2021/04/07 04:02:38;;;;;;;0.20;0.20;;;1.50;88.60;;;;;;5094515;28;20187;-69
2021/04/07 04:05:05;;;;;;;0.63;0.40;;;1.50;88.70;;;;;;5094294;28;20181;-69
2021/04/07 04:07:31;;;;;;;0.43;0.10;;;;;;;;;;5092230;28;20214;-69
2021/04/07 04:09:57;;;;;;;0.20;0.20;;;;;;;;;;5091836;28;20709;-67
2021/04/07 04:12:23;;;;;;;0.73;0.40;;;;;;;;;;5092869;28;20215;-67
2021/04/07 04:14:49;;;;;;;0.20;0.20;;;;;;;;;;5092566;28;20669;-68
2021/04/07 04:17:15;;;;;;;0.50;0.50;;;;;;;;;;5090599;28;20292;-68
2021/04/07 04:19:41;;;;;;;0.47;0.47;;;;;;;;;;5096083;28;20209;-68
2021/04/07 04:22:07;;;;;;;0.50;0.50;;;;;;;;;;5096660;28;20178;-68
2021/04/07 04:24:33;;;;;;;0.30;0.30;;;1.20;89.70;;;;;;5094502;28;20181;-68
2021/04/07 04:26:59;;;;;;;0.37;0.37;;;1.20;90.40;;;;;;5092488;28;20238;-67
2021/04/07 04:29:25;;;;;;;0.60;0.40;;;;;;;;;;5094607;28;20591;-68
2021/04/07 04:31:51;;;;;;;0.60;0.60;;;;;;;;;;5093603;28;20186;-68
2021/04/07 04:34:18;;;;;;;0.67;0.67;;;0.90;92.20;;;;;;5091796;28;20178;-67
2021/04/07 04:36:45;;;;;;;1.07;0.77;;;;;;;;;;5095308;28;20268;-69
2021/04/07 04:39:11;;;;;;;0.40;0.40;;;;;;;;;;5097902;28;20182;-69
2021/04/07 04:41:37;;;;;;;0.87;0.63;;;;;;;;;;5095200;28;20188;-69
2021/04/07 04:44:03;;;;;;;1.27;0.77;;;;;;;;;;5095566;28;20182;-68
2021/04/07 04:46:29;;;;;;;1.43;0.70;;;;;;;;;;5092851;28;20275;-68
2021/04/07 04:48:55;;;;;;;0.93;0.53;;;;;;;;;;5095259;28;20728;-69
2021/04/07 04:51:21;;;;;;;2.00;0.90;;;;;;;;;;5093405;28;20202;-69
2021/04/07 04:53:47;;;;;;;2.17;1.10;;;;;;;;;;5093557;28;20174;-68
2021/04/07 04:56:13;;;;;;;1.57;0.80;;;;;;;;;;5090394;28;20178;-69
2021/04/07 04:58:39;;;;;;;1.77;0.83;;;;;;;;;;5095189;28;20182;-68
2021/04/07 05:01:05;;;;;;;1.00;0.60;;;;;;;;;;5099380;28;20185;-69
2021/04/07 05:03:31;;;;;;;0.37;0.37;;;;;;;;;;5097456;28;20613;-68
2021/04/07 05:05:57;;;;;;;0.57;0.50;;;;;;;;;;5094105;28;20252;-68
2021/04/07 05:08:23;;;;;;;4.87;1.03;;;;;;;;;;5093532;28;20228;-69
2021/04/07 05:10:49;;;;;;;0.87;0.60;;;;;;;;;;5098767;28;20180;-67
2021/04/07 05:13:15;;;;;;;2.50;1.43;;;;;;;;;;5093301;28;20238;-68
2021/04/07 05:15:41;;;;;;;0.60;0.60;;;;;;;;;;5093440;28;20186;-69
2021/04/07 05:18:14;;;;;;;0.60;0.60;;;0.50;97.90;;;;;;5094550;28;20192;-69
2021/04/07 05:20:41;;;;;;;0.57;0.50;;;0.40;97.90;;;;;;5096182;28;20186;-68
2021/04/07 05:23:07;;;;;;;1.40;1.07;;;0.40;98.20;;;;;;5091166;28;20173;-69
2021/04/07 05:25:33;;;;;;;0.70;0.67;;;;;;;;;;5093222;28;20178;-71
2021/04/07 05:28:06;;;;;;;2.33;1.33;;;0.30;98.50;;;;;;5094607;28;20205;-67
2021/04/07 05:33:19;;;;;;;1.27;0.97;;;0.30;98.50;;;;;;5096238;28;20239;-67
2021/04/07 05:35:45;;;;;;;0.90;0.73;;;;;;;;;;5091027;28;20197;-67
2021/04/07 05:38:11;;;;;;;0.90;0.70;;;;;;;;;;5098055;28;20595;-67
2021/04/07 05:40:37;;;;;;;0.70;0.70;;;0.40;98.50;;;;;;5087856;28;20662;-67
2021/04/07 05:43:04;;;;;;;1.30;0.50;;;0.40;98.50;;;;;;5090774;28;20260;-68
2021/04/07 05:45:30;;;;;;;0.37;0.37;;;0.40;98.30;;;;;;5091776;28;20273;-68
2021/04/07 05:47:56;;;;;;;0.10;0.10;;;;;;;;;;5093154;28;20235;-68
2021/04/07 05:50:22;;;;;;;1.20;0.97;;;0.50;97.80;;;;;;5090341;28;20200;-68
2021/04/07 05:52:52;;;;;;;1.30;0.27;;;0.50;97.90;;;;;;5100552;28;20188;-68
2021/04/07 05:55:19;;;;;;;0.20;0.20;;;0.50;97.50;;;;;;5093394;28;20270;-67
2021/04/07 05:58:03;;;;;;;0.70;0.40;;;0.40;97.60;;;;;;5097302;28;20181;-67
2021/04/07 06:00:29;;;;;;;0.20;0.20;;;0.50;98.00;;;;;;5089169;28;20604;-66
2021/04/07 06:02:56;;;;;;;0.20;0.20;;;0.40;98.20;;;;;;5093267;28;20178;-67
2021/04/07 06:05:23;;;;;;;0.50;0.50;;;0.40;98.40;;;;;;5076972;28;20174;-67
2021/04/07 06:07:50;;;;;;;1.53;0.30;;;0.40;98.50;;;;;;5091197;28;20664;-67
2021/04/07 06:10:15;;;;;;;0.40;0.40;;;0.40;98.50;;;;;;5089044;28;20165;-67
2021/04/07 06:12:42;;;;;;;5.07;1.83;;;0.50;98.50;;;;;;5087769;28;20189;-69
2021/04/07 06:15:09;;;;;;;9.50;3.27;;;0.40;98.20;;;;;;5097550;28;20174;-69
2021/04/07 06:17:36;;;;;;;2.27;1.03;;;;;;;;;;5094563;28;20269;-68
2021/04/07 06:20:06;;;;;;;0.30;0.30;;;0.40;98.50;;;;;;5096990;28;20173;-69
2021/04/07 06:22:32;;;;;;;0.63;0.20;;;;;;;;;;5091633;28;20698;-69
2021/04/07 06:24:58;;;;;;;2.87;0.40;;;;;;;;;;5096970;28;20686;-69
2021/04/07 06:27:24;;;;;;;0.40;0.40;;;0.30;98.40;;;;;;5091491;28;20239;-70
2021/04/07 06:29:50;;;;;;;0.43;0.27;;;0.20;97.70;;;;;;5091887;28;20249;-68
2021/04/07 06:32:15;;;;;;;0.97;0.33;;;0.10;97.70;;;;;;5097548;28;20193;-67
2021/04/07 06:34:41;;;;;;;0.20;0.20;;;0.20;98.10;;;;;;5097747;28;20665;-69
2021/04/07 06:37:07;;;;;;;0.10;0.10;;;;;;;;;;5092413;28;20186;-67
2021/04/07 06:39:32;;;;;;;0.20;0.20;;;0.30;98.40;;;;;;5098606;28;20182;-69
2021/04/07 06:41:59;;;;;;;0.30;0.30;;;0.30;98.50;;;;;;5097257;28;20184;-68
2021/04/07 06:44:25;;;;;;;0.87;0.50;;;0.30;98.50;;;;;;5092978;28;20195;-69
2021/04/07 06:46:55;;;;;;;0.47;0.47;;;0.30;98.50;;;;;;5077287;28;20227;-69
2021/04/07 06:49:23;;;;;;;0.60;0.60;;;0.40;98.50;;;;;;5095326;28;20210;-69
2021/04/07 06:51:52;;;;;;;0.30;0.30;;;0.20;98.50;;;;;;5091438;28;20231;-68
2021/04/07 06:54:21;;;;;;;0.40;0.40;;;0.20;98.50;;;;;;5094269;28;20216;-68
2021/04/07 06:56:49;;;;;;;2.30;1.67;;;0.20;98.50;;;;;;5093720;28;21410;-68
2021/04/07 06:59:15;;;;;;;0.20;0.20;;;;;;;;;;5091941;28;20188;-69
2021/04/07 07:01:41;;;;;;;0.50;0.50;;;0.20;98.50;;;;;;5097771;28;20185;-68
2021/04/07 07:04:07;;;;;;;0.67;0.60;;;;;;;;;;5091758;28;21624;-68
2021/04/07 07:06:33;;;;;;;0.83;0.80;;;0.20;98.50;;;;;;5094676;28;20182;-68
2021/04/07 07:08:59;;;;;;;0.47;0.47;;;0.10;98.50;;;;;;5094241;28;20316;-69
2021/04/07 07:11:28;;;;;;;0.60;0.53;;;0.10;98.50;;;;;;5097602;28;20245;-69
2021/04/07 07:13:53;;;;;;;0.40;0.40;;;0.10;98.50;;;;;;5095334;28;20182;-69
2021/04/07 07:16:26;;;;;;;0.47;0.47;;;0.10;98.20;;;;;;5097394;28;20804;-69
2021/04/07 07:18:52;;;;;;;0.40;0.40;;;0.20;98.30;;;;;;5094422;28;20840;-69
2021/04/07 07:21:19;;;;;;;0.40;0.40;;;0.20;98.40;;;;;;5093808;28;20182;-69
2021/04/07 07:23:47;;;;;;;0.47;0.47;;;0.20;98.50;;;;;;5088851;28;20171;-67
2021/04/07 07:26:13;;;;;;;0.53;0.30;;;0.30;98.30;;;;;;5091933;28;20174;-68
2021/04/07 07:28:39;;;;;;;0.40;0.40;;;0.30;98.40;;;;;;5093813;28;20776;-69
2021/04/07 07:31:35;;;;;;;0.20;0.20;;;0.30;98.10;;;;;;5090785;28;20217;-68
2021/04/07 07:34:04;;;;;;;0.60;0.60;;;0.30;98.30;;;;;;5088999;28;20190;-68
2021/04/07 07:36:33;;;;;;;1.17;1.07;;;0.40;98.20;;;;;;5072114;28;20295;-69
2021/04/07 07:38:59;;;;;;;0.40;0.40;;;0.50;98.10;;;;;;5095824;28;20170;-70
2021/04/07 07:41:37;;;;;;;0.90;0.40;;;0.50;97.90;;;;;;5094851;28;20178;-68
2021/04/07 07:44:04;;;;;;;0.43;0.43;;;0.60;97.90;;;;;;5088845;28;20613;-69
2021/04/07 07:46:31;;;;;;;0.50;0.50;;;0.60;97.40;;;;;;5090992;28;20230;-69
2021/04/07 07:49:02;;;;;;;0.50;0.50;;;0.60;97.00;;;;;;5100043;28;20301;-69
2021/04/07 07:51:27;;;;;;;1.47;1.20;;;0.70;96.90;;;;;;5099215;28;20813;-70
2021/04/07 07:53:55;;;;;;;0.80;0.80;;;0.70;97.00;;;;;;5097738;28;20281;-69
2021/04/07 07:56:34;;;;;;;0.50;0.50;;;0.80;96.70;;;;;;5091515;28;20285;-70
2021/04/07 07:58:59;;;;;;;0.73;0.73;;;0.70;96.10;;;;;;5089673;28;20179;-70
2021/04/07 08:01:25;;;;;;;0.50;0.50;;;0.70;96.10;;;;;;5095720;28;20200;-69
2021/04/07 08:03:51;;;;;;;0.63;0.63;;;0.80;96.70;;;;;;5092621;28;20673;-70
2021/04/07 08:06:17;;;;;;;0.73;0.60;;;0.90;96.80;;;;;;5092890;28;20175;-68
2021/04/07 08:08:43;;;;;;;0.40;0.40;;;0.90;96.20;;;;;;5097914;28;20210;-70
2021/04/07 08:11:09;;;;;;;0.30;0.30;;;1.00;95.90;;;;;;5093147;28;20607;-70
2021/04/07 08:13:37;;;;;;;0.27;0.27;;;1.00;96.10;;;;;;5092890;28;20181;-70
2021/04/07 08:16:05;;;;;;;0.60;0.47;;;1.00;96.10;;;;;;5068301;28;20202;-70
2021/04/07 08:18:31;;;;;;;2.33;0.80;;;1.10;95.90;;;;;;5091341;28;20173;-69
2021/04/07 08:20:57;;;;;;;1.10;0.97;;;1.10;95.90;;;;;;5092451;28;20261;-68
2021/04/07 08:23:24;;;;;;;0.70;0.70;;;1.20;96.10;;;;;;5095008;28;20195;-67
2021/04/07 08:25:55;;;;;;;0.93;0.87;;;1.40;96.20;;;;;;5088471;28;20185;-70
2021/04/07 08:28:21;;;;;;;1.23;1.23;;;1.50;95.50;;;;;;5090376;28;20214;-69
2021/04/07 08:30:48;;;;;;;1.00;1.00;;;1.60;95.00;;;;;;5091586;28;20182;-69
2021/04/07 08:33:20;;;;;;;0.97;0.97;;;1.50;94.50;;;;;;5090367;28;20181;-69
2021/04/07 08:35:50;;;;;;;1.37;1.10;;;1.60;95.10;;;;;;5087906;28;20264;-69
2021/04/07 08:38:16;;;;;;;1.23;1.23;;;1.60;94.00;;;;;;5089876;28;20186;-68
2021/04/07 08:40:44;;;;;;;1.23;1.13;;;1.60;93.60;;;;;;5090967;28;20597;-68
2021/04/07 08:43:12;;;;;;;2.03;1.70;;;1.50;93.70;;;;;;5089743;28;20170;-69
2021/04/07 08:45:48;;;;;;;1.93;1.83;;;1.50;93.80;;;;;;5086124;28;20171;-69
2021/04/07 08:48:19;;;;;;;1.77;1.67;;;1.60;93.70;;;;;;5087142;28;20245;-69
2021/04/07 08:50:47;;;;;;;1.67;1.63;;;1.70;93.90;;;;;;5085791;28;20682;-70
2021/04/07 08:53:15;;;;;;;1.10;1.10;;;1.80;93.90;;;;;;5090940;28;20192;-69
2021/04/07 08:55:50;;;;;;;0.83;0.83;;;1.80;92.60;;;;;;5094918;28;20178;-68
2021/04/07 08:58:25;;;;;;;0.70;0.70;;;1.80;92.10;;;;;;5088412;28;20174;-68
2021/04/07 09:00:56;;;;;;;1.23;1.13;;;1.80;92.10;;;;;;5088681;28;20578;-69
2021/04/07 09:03:25;;;;;;;1.00;1.00;;;1.60;91.70;;;;;;5090055;28;20170;-69
2021/04/07 09:05:52;;;;;;;1.53;1.43;;;1.50;92.50;;;;;;5084442;28;20197;-68
2021/04/07 09:08:25;;;;;;;0.90;0.90;;;1.50;92.90;;;;;;5092862;28;20201;-69
2021/04/07 09:10:52;;;;;;;1.43;1.33;;;1.50;93.20;;;;;;5087742;28;20174;-68
2021/04/07 09:13:23;;;;;;;1.03;1.03;;;1.50;93.40;;;;;;5088125;28;20261;-69
2021/04/07 09:15:55;;;;;;;1.80;1.70;;;1.50;93.60;;;;;;5088378;28;20216;-72
2021/04/07 09:18:40;;;;;;;1.20;1.13;;;1.60;93.50;;;;;;5087576;28;20269;-71
2021/04/07 09:21:21;;;;;;;0.90;0.90;;;1.50;93.30;;;;;;5086377;28;20198;-70
2021/04/07 09:23:56;;;;;;;1.17;1.10;;;1.50;93.40;;;;;;5092530;28;20173;-70
2021/04/07 09:26:26;;;;;;;1.27;1.17;;;1.50;93.90;;;;;;5073036;28;20178;-70
2021/04/07 09:28:54;;;;;;;1.43;1.10;;;1.60;94.30;;;;;;5089732;28;20236;-69
2021/04/07 09:31:32;;;;;;;1.27;1.27;;;1.60;94.30;;;;;;5090291;28;20263;-69
2021/04/07 09:33:58;;;;;;;2.30;1.40;;;1.50;94.20;;;;;;5089795;28;20260;-68
2021/04/07 09:36:27;;;;;;;2.10;1.17;;;1.50;94.70;;;;;;5086060;28;20789;-69
2021/04/07 09:38:56;;;;;;;1.60;1.50;;;1.50;95.40;;;;;;5090180;28;20190;-70
2021/04/07 09:41:26;;;;;;;2.03;1.90;;;1.40;95.90;;;;;;5089244;28;20186;-72
2021/04/07 09:43:53;;;;;;;0.90;0.90;;;1.30;95.90;;;;;;5090654;28;20189;-71
2021/04/07 09:46:20;;;;;;;1.60;1.50;;;1.40;95.90;;;;;;5094442;28;20646;-70
2021/04/07 09:49:00;;;;;;;1.53;1.53;;;1.30;96.50;;;;;;5093235;28;20332;-71
2021/04/07 09:51:30;;;;;;;1.80;1.70;;;1.30;96.80;;;;;;5088989;28;20200;-72
2021/04/07 09:54:12;;;;;;;1.80;1.70;;;1.30;97.00;;;;;;5091279;28;20186;-69
2021/04/07 09:56:56;;;;;;;2.07;1.33;;;1.30;97.10;;;;;;5086894;28;20182;-69
2021/04/07 09:59:48;;;;;;;1.50;1.40;;;1.40;97.10;;;;;;5084118;28;20259;-68
2021/04/07 10:02:35;;;;;;;1.67;1.20;;;1.40;97.10;;;;;;5090456;28;20182;-68
2021/04/07 10:05:01;;;;;;;0.90;0.90;;;1.40;96.80;;;;;;5094276;28;20227;-67
2021/04/07 10:07:28;;;;;;;0.83;0.83;;;1.50;96.60;;;;;;5091214;28;20285;-69
2021/04/07 10:09:59;;;;;;;0.93;0.93;;;1.40;96.00;;;;;;5088139;28;20260;-69
2021/04/07 10:12:27;;;;;;;1.47;0.97;;;1.50;96.40;;;;;;5094315;28;20195;-69
2021/04/07 10:14:55;;;;;;;0.60;0.60;;;1.50;96.70;;;;;;5098797;28;20763;-69
2021/04/07 10:17:26;;;;;;;0.80;0.80;;;1.50;96.30;;;;;;5098605;28;20182;-69
2021/04/07 10:19:52;;;;;;;1.50;0.93;;;1.50;96.40;;;;;;5090508;28;20186;-69
2021/04/07 10:22:29;;;;;;;1.23;1.20;;;1.60;96.70;;;;;;5094723;28;20178;-68
2021/04/07 10:25:25;;;;;;;0.93;0.93;;;1.50;95.60;;;;;;5091858;28;20373;-68
2021/04/07 10:27:50;;;;;;;0.60;0.60;;;1.40;96.40;;;;;;5093301;28;20226;-68
2021/04/07 10:30:19;;;;;;;2.00;0.90;;;1.50;96.60;;;;;;5093860;28;20189;-68
2021/04/07 10:32:47;;;;;;;0.60;0.60;;;1.70;95.80;;;;;;5090492;28;20186;-68
2021/04/07 10:35:26;;;;;;;0.70;0.70;;;1.80;95.20;;;;;;5093629;28;20178;-68
2021/04/07 10:37:52;;;;;;;6.07;1.07;;;1.80;95.20;;;;;;5089451;28;20197;-68
2021/04/07 10:40:20;;;;;;;1.33;1.33;;;1.90;95.10;;;;;;5094795;28;20179;-68
2021/04/07 10:42:46;;;;;;;2.10;1.13;;;2.00;94.30;;;;;;5091624;28;20187;-70
2021/04/07 10:45:12;;;;;;;1.07;1.07;;;2.10;94.10;;;;;;5092879;28;20196;-69
2021/04/07 10:47:38;;;;;;;1.23;1.10;;;2.20;94.80;;;;;;5095821;28;20193;-70
2021/04/07 10:50:06;;;;;;;1.40;1.40;;;2.40;94.70;;;;;;5092143;28;20198;-70
2021/04/07 10:52:41;;;;;;;1.20;1.17;;;2.60;94.40;;;;;;5074832;28;20182;-69
2021/04/07 10:55:12;;;;;;;1.23;1.23;;;2.80;93.60;;;;;;5095945;28;20673;-70
2021/04/07 10:57:46;;;;;;;0.87;0.83;;;3.10;92.90;;;;;;5087836;28;20622;-70
2021/04/07 11:00:27;;;;;;;2.50;1.33;;;3.20;90.90;;;;;;5090082;28;20182;-70
2021/04/07 11:02:52;;;;;;;1.53;1.43;;;3.40;90.00;;;;;;5096822;28;20283;-70
2021/04/07 11:05:23;;;;;;;3.20;1.70;;;3.50;89.00;;;;;;5096509;28;20174;-70
2021/04/07 11:08:04;;;;;;;1.83;1.73;;;3.70;87.90;;;;;;5092452;28;20210;-70
2021/04/07 11:10:44;;;;;;;1.43;1.30;;;3.90;86.90;;;;;;5091678;28;20185;-70
2021/04/07 11:13:13;;;;;;;0.93;0.93;;;4.20;86.70;;;;;;5091334;28;20288;-70
2021/04/07 11:15:39;;;;;;;1.03;1.03;;;4.60;84.90;;;;;;5093098;28;20182;-70
2021/04/07 11:18:06;;;;;;;1.03;1.03;;;4.80;84.20;;;;;;5089501;28;20209;-70
2021/04/07 11:20:33;;;;;;;0.73;0.73;;;4.80;83.70;;;;;;5092628;28;21412;-69
2021/04/07 11:22:59;;;;;;;2.20;1.50;;;4.80;83.70;;;;;;5095135;28;20611;-70
2021/04/07 11:25:26;;;;;;;1.40;1.40;;;5.10;83.30;;;;;;5096671;28;20182;-70
2021/04/07 11:27:55;;;;;;;1.50;1.50;;;5.40;84.00;;;;;;5092713;28;20437;-69
2021/04/07 11:30:21;;;;;;;1.43;1.43;;;5.70;82.10;;;;;;5092918;28;20181;-70
2021/04/07 11:32:51;;;;;;;1.80;1.70;;;5.80;81.20;;;;;;5094407;28;20182;-70
2021/04/07 11:45:24;;;;;;;1.13;1.13;;;5.00;79.80;;;;;;5096365;28;20271;-70
2021/04/07 11:47:50;;;;;;;1.47;1.40;;;4.70;79.80;;;;;;5091027;28;20312;-68
2021/04/07 11:50:16;;;;;;;1.33;1.27;;;4.70;80.80;;;;;;5090489;28;20663;-69
2021/04/07 11:52:41;;;;;;;1.63;1.60;;;4.60;81.10;;;;;;5096133;28;20186;-69
2021/04/07 11:55:08;;;;;;;1.87;1.77;;;4.60;81.10;;;;;;5093461;28;20190;-69
2021/04/07 11:57:34;;;;;;;1.73;1.73;;;4.70;81.80;;;;;;5090575;28;20291;-69
2021/04/07 12:00:00;;;;;;;1.37;1.37;;;4.80;81.70;;;;;;5089084;28;20228;-69
2021/04/07 12:02:25;;;;;;;1.30;1.23;;;4.90;80.60;;;;;;5090168;28;20209;-69
2021/04/07 12:04:52;;;;;;;1.53;1.40;;;4.90;80.40;;;;;;5095718;28;20229;-69
2021/04/07 12:07:18;;;;;;;2.07;2.00;;;5.00;81.00;;;;;;5086812;28;20272;-68
2021/04/07 12:09:48;;;;;;;1.40;1.40;;;5.10;80.80;;;;;;5091173;28;20216;-70
2021/04/07 12:12:15;;;;;;;1.60;1.50;;;5.00;80.00;;;;;;5090401;28;20186;-70
2021/04/07 12:14:40;;;;;;;1.43;1.33;;;5.10;80.90;;;;;;5087928;28;20722;-70
2021/04/07 12:17:06;;;;;;;2.50;2.40;;;5.10;80.10;;;;;;5089942;28;20250;-69
2021/04/07 12:19:32;;;;;;;2.53;2.33;;;5.20;80.10;;;;;;5073401;28;20189;-69
2021/04/07 12:21:58;;;;;;;2.87;2.40;;;5.30;79.90;;;;;;5093259;28;20187;-69
2021/04/07 12:24:24;;;;;;;2.53;2.13;;;5.20;78.90;;;;;;5089473;28;20208;-69
2021/04/07 12:26:49;;;;;;;2.17;1.63;;;5.30;79.10;;;;;;5077550;28;20182;-69
2021/04/07 12:29:15;;;;;;;2.20;2.10;;;5.30;78.50;;;;;;5091998;28;20214;-68
2021/04/07 12:31:41;;;;;;;2.77;2.57;;;5.10;77.80;;;;;;5087377;28;20188;-68
2021/04/07 12:34:07;;;;;;;2.53;2.33;;;5.10;78.40;;;;;;5089279;28;20200;-69
2021/04/07 12:36:33;;;;;;;2.60;2.50;;;4.90;78.50;;;;;;5089745;28;20285;-68
2021/04/07 12:39:01;;;;;;;8.53;3.03;;;4.80;79.00;;;;;;5091837;28;20224;-68
2021/04/07 12:41:32;;;;;;;2.40;2.30;;;4.80;79.70;;;;;;5086376;28;20174;-69
2021/04/07 12:43:59;;;;;;;1.90;1.80;;;4.80;79.10;;;;;;5085593;28;20182;-69
2021/04/07 12:46:25;;;;;;;3.47;2.10;;;4.80;78.20;;;;;;5091257;28;20178;-69
2021/04/07 12:48:51;;;;;;;1.80;1.80;;;4.90;78.70;;;;;;5089838;28;20268;-68
2021/04/07 12:51:19;;;;;;;1.30;1.30;;;4.70;78.20;;;;;;5091131;28;20173;-70
2021/04/07 12:53:49;;;;;;;1.13;1.13;;;4.60;78.00;;;;;;5093973;28;20544;-68
2021/04/07 12:56:16;;;;;;;1.10;1.10;;;4.60;78.00;;;;;;5091479;28;20198;-69
2021/04/07 12:58:46;;;;;;;1.30;1.30;;;4.50;78.10;;;;;;5091850;28;20209;-69
2021/04/07 13:01:13;;;;;;;1.30;1.30;;;4.40;79.00;;;;;;5090042;28;20179;-69
2021/04/07 13:03:39;;;;;;;1.50;1.50;;;4.40;79.30;;;;;;5096083;28;20727;-68
2021/04/07 13:06:05;;;;;;;4.70;1.70;;;4.50;80.00;;;;;;5090913;28;20178;-68
2021/04/07 13:08:31;;;;;;;2.03;1.93;;;4.60;80.50;;;;;;5088840;28;20217;-68
2021/04/07 13:10:57;;;;;;;2.20;2.10;;;4.70;79.00;;;;;;5088882;28;20183;-68
2021/04/07 13:13:41;;;;;;;1.93;1.83;;;4.70;78.10;;;;;;5092183;28;20184;-68
2021/04/07 13:16:07;;;;;;;1.73;1.63;;;4.80;78.60;;;;;;5088379;28;20193;-70
2021/04/07 13:18:34;;;;;;;1.43;1.43;;;4.80;77.80;;;;;;5091445;28;20566;-69
2021/04/07 13:21:10;;;;;;;2.50;1.90;;;4.80;77.10;;;;;;5092993;28;20182;-68
2021/04/07 13:23:37;;;;;;;1.87;1.77;;;4.80;77.70;;;;;;5089844;28;20254;-69
2021/04/07 13:26:03;;;;;;;1.67;1.67;;;4.70;76.80;;;;;;5094309;28;20258;-68
2021/04/07 13:28:28;;;;;;;1.33;1.33;;;4.60;77.70;;;;;;5090578;28;20224;-69
2021/04/07 13:30:56;;;;;;;7.80;1.13;;;4.80;78.10;;;;;;5094481;28;20829;-69
2021/04/07 13:38:58;;;;;;;2.00;1.90;;;5.00;76.00;;;;;;5091503;28;20186;-68